createdAt,value
2023-01-11T00:01:24.575Z,22.00
2023-01-11T00:03:53.767Z,21.40
2023-01-11T00:06:22.660Z,20.60
2023-01-11T00:08:51.411Z,22.20
2023-01-11T00:11:20.419Z,20.20
2023-01-11T00:13:48.924Z,21.30
2023-01-11T00:16:18.110Z,20.60
2023-01-11T00:18:47.862Z,20.30
2023-01-11T00:21:17.120Z,18.00
2023-01-11T00:23:49.996Z,20.50
2023-01-11T00:26:20.594Z,18.90
2023-01-11T00:28:53.004Z,21.40
2023-01-11T00:31:25.063Z,21.50
2023-01-11T00:33:56.341Z,23.10
2023-01-11T00:36:28.691Z,22.70
2023-01-11T00:38:59.530Z,22.80
2023-01-11T00:41:48.558Z,21.50
2023-01-11T00:44:37.275Z,21.10
2023-01-11T00:47:29.054Z,19.90
2023-01-11T00:50:00.706Z,22.10
2023-01-11T00:52:32.625Z,21.70
2023-01-11T00:55:03.482Z,21.80
2023-01-11T00:57:34.692Z,21.30
2023-01-11T01:00:07.604Z,23.20
2023-01-11T01:02:39.724Z,21.90
2023-01-11T01:05:11.672Z,21.10
2023-01-11T01:07:43.745Z,20.10
2023-01-11T01:10:17.744Z,21.20
2023-01-11T01:13:06.404Z,19.10
2023-01-11T01:15:38.698Z,20.00
2023-01-11T01:18:10.226Z,21.40
2023-01-11T01:20:42.122Z,21.60
2023-01-11T01:23:13.688Z,18.50
2023-01-11T01:25:43.283Z,20.10
2023-01-11T01:34:16.538Z,18.40
2023-01-11T01:36:44.909Z,19.90
2023-01-11T01:39:13.387Z,18.10
2023-01-11T01:41:41.951Z,17.60
2023-01-11T01:44:47.715Z,17.30
2023-01-11T01:47:16.305Z,18.10
2023-01-11T01:49:46.100Z,17.40
2023-01-11T01:52:14.599Z,18.80
2023-01-11T01:54:47.797Z,16.60
2023-01-11T01:57:22.949Z,17.30
2023-01-11T01:59:54.684Z,17.20
2023-01-11T02:02:25.185Z,19.00
2023-01-11T02:04:57.702Z,19.50
2023-01-11T02:07:32.027Z,18.70
2023-01-11T02:10:05.813Z,18.80
2023-01-11T02:12:59.431Z,19.80
2023-01-11T02:15:29.021Z,20.40
2023-01-11T02:17:57.309Z,18.10
2023-01-11T02:20:50.825Z,17.60
2023-01-11T02:23:23.682Z,19.80
2023-01-11T02:26:10.563Z,18.90
2023-01-11T02:28:47.869Z,17.20
2023-01-11T02:31:40.344Z,18.20
2023-01-11T02:34:25.874Z,17.30
2023-01-11T02:37:04.210Z,18.40
2023-01-11T02:39:35.951Z,18.80
2023-01-11T02:42:51.888Z,17.20
2023-01-11T02:45:44.665Z,18.90
2023-01-11T02:48:21.719Z,17.40
2023-01-11T02:50:59.298Z,17.40
2023-01-11T02:53:36.694Z,17.80
2023-01-11T02:56:10.965Z,17.90
2023-01-11T02:58:42.765Z,14.90
2023-01-11T03:01:12.165Z,13.90
2023-01-11T03:03:40.644Z,15.70
2023-01-11T03:06:17.486Z,16.10
2023-01-11T03:09:07.409Z,15.20
2023-01-11T03:11:57.614Z,16.50
2023-01-11T03:14:48.214Z,16.10
2023-01-11T03:20:38.882Z,14.40
2023-01-11T03:23:19.668Z,15.20
2023-01-11T03:26:05.268Z,15.10
2023-01-11T03:28:48.885Z,16.00
2023-01-11T03:31:26.116Z,14.50
2023-01-11T03:34:29.836Z,15.00
2023-01-11T03:37:09.884Z,14.20
2023-01-11T03:40:06.375Z,15.00
2023-01-11T03:42:57.544Z,15.20
2023-01-11T03:45:27.863Z,15.00
2023-01-11T03:47:57.901Z,14.00
2023-01-11T03:50:29.921Z,14.70
2023-01-11T03:53:00.910Z,16.10
2023-01-11T03:55:34.219Z,13.80
2023-01-11T03:58:02.901Z,14.30
2023-01-11T04:00:32.818Z,15.80
2023-01-11T04:03:01.314Z,13.90
2023-01-11T04:05:29.781Z,13.60
2023-01-11T04:07:58.098Z,13.40
2023-01-11T04:10:26.422Z,14.20
2023-01-11T04:12:54.744Z,13.00
2023-01-11T04:15:23.229Z,11.60
2023-01-11T04:17:51.767Z,12.10
2023-01-11T04:20:20.239Z,12.40
2023-01-11T04:22:48.589Z,9.70
2023-01-11T04:25:17.085Z,9.80
2023-01-11T04:27:45.954Z,10.50
2023-01-11T04:30:14.531Z,12.30
2023-01-11T04:32:42.989Z,12.60
2023-01-11T04:35:11.351Z,10.70
2023-01-11T04:37:39.873Z,11.00
2023-01-11T04:40:09.635Z,11.50
2023-01-11T04:42:37.930Z,11.40
2023-01-11T04:45:06.769Z,11.00
2023-01-11T04:47:35.119Z,11.70
2023-01-11T04:50:03.466Z,11.00
2023-01-11T04:52:31.919Z,9.50
2023-01-11T04:55:00.182Z,8.80
2023-01-11T04:57:28.496Z,10.10
2023-01-11T04:59:56.819Z,11.20
2023-01-11T05:02:25.268Z,10.20
2023-01-11T05:04:53.678Z,9.40
2023-01-11T05:07:22.260Z,8.90
2023-01-11T05:09:50.714Z,9.10
2023-01-11T05:12:19.107Z,9.90
2023-01-11T05:14:47.636Z,9.20
2023-01-11T05:17:16.645Z,9.10
2023-01-11T05:19:45.132Z,9.00
2023-01-11T05:22:13.624Z,8.90
2023-01-11T05:24:41.941Z,8.80
2023-01-11T05:27:10.551Z,9.20
2023-01-11T05:29:39.111Z,8.10
2023-01-11T05:32:07.573Z,9.70
2023-01-11T05:34:36.188Z,8.40
2023-01-11T05:37:04.543Z,9.20
2023-01-11T05:39:33.137Z,8.40
2023-01-11T05:42:01.500Z,8.60
2023-01-11T05:44:48.293Z,10.10
2023-01-11T05:47:16.835Z,8.80
2023-01-11T05:49:45.538Z,9.20
2023-01-11T05:52:13.978Z,9.90
2023-01-11T05:54:42.337Z,8.80
2023-01-11T05:57:12.373Z,8.90
2023-01-11T05:59:43.751Z,9.40
2023-01-11T06:02:12.694Z,8.80
2023-01-11T06:04:41.794Z,8.40
2023-01-11T06:07:12.625Z,8.20
2023-01-11T06:09:42.072Z,7.80
2023-01-11T06:12:13.752Z,9.00
2023-01-11T06:14:42.333Z,9.20
2023-01-11T06:17:11.426Z,8.70
2023-01-11T06:19:40.472Z,8.30
2023-01-11T06:22:09.079Z,8.20
2023-01-11T06:24:41.514Z,8.20
2023-01-11T06:27:10.979Z,8.80
2023-01-11T06:29:40.077Z,9.00
2023-01-11T06:32:09.043Z,9.00
2023-01-11T06:34:38.285Z,9.10
2023-01-11T06:37:07.965Z,8.00
2023-01-11T06:39:36.958Z,8.30
2023-01-11T06:42:09.043Z,8.60
2023-01-11T06:44:38.187Z,9.10
2023-01-11T06:47:08.577Z,9.20
2023-01-11T06:49:37.424Z,7.80
2023-01-11T06:52:06.473Z,7.50
2023-01-11T06:54:35.318Z,8.10
2023-01-11T06:57:04.568Z,8.80
2023-01-11T06:59:33.937Z,7.90
2023-01-11T07:02:03.522Z,7.90
2023-01-11T07:04:32.538Z,8.70
2023-01-11T07:07:02.435Z,7.20
2023-01-11T07:09:31.566Z,7.90
2023-01-11T07:12:02.978Z,8.10
2023-01-11T07:14:33.630Z,8.60
2023-01-11T07:17:04.139Z,8.80
2023-01-11T07:19:34.946Z,7.40
2023-01-11T07:22:13.038Z,8.70
2023-01-11T07:24:42.333Z,8.60
2023-01-11T07:29:41.855Z,7.70
2023-01-11T07:32:11.217Z,7.30
2023-01-11T07:34:40.684Z,8.90
2023-01-11T07:37:28.032Z,7.50
2023-01-11T07:40:09.296Z,8.90
2023-01-11T07:42:57.588Z,8.00
2023-01-11T07:49:55.004Z,6.90
2023-01-11T07:52:28.027Z,7.60
2023-01-11T07:55:09.012Z,7.80
2023-01-11T07:57:42.864Z,7.90
2023-01-11T08:00:12.995Z,7.60
2023-01-11T08:02:44.315Z,8.70
2023-01-11T08:05:13.016Z,8.40
2023-01-11T08:07:42.522Z,7.00
2023-01-11T08:10:16.379Z,7.50
2023-01-11T08:13:08.358Z,7.20
2023-01-11T08:20:13.071Z,7.80
2023-01-11T08:22:44.913Z,7.00
2023-01-11T08:25:15.341Z,6.70
2023-01-11T08:27:44.924Z,7.00
2023-01-11T08:30:15.682Z,7.60
2023-01-11T08:32:45.809Z,8.00
2023-01-11T08:35:16.237Z,7.70
2023-01-11T08:37:48.169Z,7.30
2023-01-11T08:40:18.062Z,7.00
2023-01-11T08:42:48.005Z,6.30
2023-01-11T08:45:18.580Z,6.30
2023-01-11T08:47:54.602Z,6.90
2023-01-11T08:50:27.689Z,7.30
2023-01-11T08:53:06.544Z,8.10
2023-01-11T08:55:42.617Z,7.50
2023-01-11T08:58:25.364Z,7.60
2023-01-11T09:01:01.040Z,7.20
2023-01-11T09:03:39.851Z,8.00
2023-01-11T09:06:11.653Z,6.30
2023-01-11T09:08:43.187Z,11.50
2023-01-11T09:11:32.047Z,8.80
2023-01-11T09:14:00.954Z,8.20
2023-01-11T09:16:38.861Z,8.60
2023-01-11T09:19:08.710Z,9.10
2023-01-11T09:21:37.566Z,8.50
2023-01-11T09:24:08.667Z,8.30
2023-01-11T09:26:39.122Z,8.00
2023-01-11T09:29:08.848Z,7.40
2023-01-11T09:31:38.981Z,7.90
2023-01-11T09:34:12.769Z,8.10
2023-01-11T09:36:46.878Z,8.90
2023-01-11T09:39:19.514Z,7.50
2023-01-11T09:41:52.227Z,8.00
2023-01-11T10:02:10.021Z,8.60
2023-01-11T10:18:37.596Z,8.50
2023-01-11T10:18:48.787Z,8.90
2023-01-11T10:21:54.707Z,9.00
2023-01-11T10:24:54.940Z,9.90
2023-01-11T10:28:01.202Z,9.80
2023-01-11T10:31:39.203Z,9.80
2023-01-11T10:34:41.379Z,9.20
2023-01-11T10:49:21.496Z,9.40
2023-01-11T10:53:09.367Z,8.30
2023-01-11T10:55:55.547Z,9.00
2023-01-11T10:58:58.222Z,7.90
2023-01-11T11:02:02.139Z,9.50
2023-01-11T11:04:50.147Z,9.50
2023-01-11T11:07:45.303Z,8.20
2023-01-11T11:10:28.773Z,8.90
2023-01-11T11:13:23.235Z,8.70
2023-01-11T11:16:03.956Z,9.60
2023-01-11T11:18:33.712Z,9.40
2023-01-11T11:21:22.834Z,8.60
2023-01-11T11:24:10.063Z,9.20
2023-01-11T11:26:46.245Z,8.90
2023-01-11T11:29:29.725Z,7.90
2023-01-11T11:32:45.776Z,9.00
2023-01-11T11:43:33.771Z,8.00
2023-01-11T12:11:01.462Z,8.40
2023-01-11T12:13:42.462Z,7.50
2023-01-11T12:16:45.119Z,7.80
2023-01-11T12:19:44.874Z,7.90
2023-01-11T12:22:37.139Z,7.10
2023-01-11T12:32:13.003Z,8.10
2023-01-11T12:36:30.051Z,8.20
2023-01-11T12:40:08.007Z,7.70
2023-01-11T12:44:09.576Z,8.50
2023-01-11T12:47:57.461Z,9.10
2023-01-11T12:56:15.672Z,8.40
2023-01-11T13:03:14.534Z,9.20
2023-01-11T13:06:00.895Z,9.30
2023-01-11T13:09:07.414Z,8.60
2023-01-11T13:12:48.429Z,8.30
2023-01-11T13:16:23.119Z,9.30
2023-01-11T13:19:19.281Z,9.60
2023-01-11T13:22:08.640Z,9.10
2023-01-11T13:24:45.951Z,10.60
2023-01-11T13:27:25.031Z,9.30
2023-01-11T13:30:00.224Z,9.60
2023-01-11T13:33:18.943Z,10.50
2023-01-11T13:38:52.983Z,8.80
2023-01-11T13:44:31.940Z,9.00
2023-01-11T13:50:12.492Z,10.90
2023-01-11T13:53:06.660Z,11.00
2023-01-11T13:56:16.551Z,8.70
2023-01-11T14:06:33.078Z,9.30
2023-01-11T14:10:43.551Z,8.80
2023-01-11T14:14:33.881Z,9.90
2023-01-11T14:21:30.487Z,9.40
2023-01-11T14:27:42.505Z,9.80
2023-01-11T14:30:55.548Z,9.20
2023-01-11T14:34:17.813Z,9.50
2023-01-11T14:38:19.600Z,10.10
2023-01-11T15:02:39.031Z,9.60
2023-01-11T16:24:32.626Z,8.60
2023-01-11T17:22:44.499Z,11.60
2023-01-11T17:25:26.081Z,13.30
2023-01-11T17:30:32.310Z,11.90
2023-01-11T19:11:41.234Z,9.70
2023-01-11T19:36:13.778Z,9.70
2023-01-11T19:38:49.366Z,9.20
2023-01-11T19:41:29.731Z,10.10
2023-01-11T19:44:32.604Z,11.00
2023-01-11T19:56:07.342Z,10.70
2023-01-11T20:10:57.673Z,10.90
2023-01-11T20:23:26.432Z,11.00
2023-01-11T20:33:21.276Z,12.20
2023-01-11T20:40:27.077Z,12.40
2023-01-11T20:43:36.037Z,11.80
2023-01-11T21:02:16.803Z,13.20
2023-01-11T21:18:50.055Z,15.90
2023-01-11T21:26:00.786Z,13.60
2023-01-11T21:33:28.835Z,13.80
2023-01-11T21:36:34.880Z,12.90
2023-01-11T21:36:59.130Z,15.10
2023-01-11T21:47:36.672Z,16.20
2023-01-11T21:54:20.852Z,14.60
2023-01-11T21:57:10.924Z,14.80
2023-01-11T22:03:41.757Z,15.90
2023-01-11T22:06:47.622Z,14.40
2023-01-11T22:10:03.412Z,14.40
2023-01-11T22:13:08.507Z,14.70
2023-01-11T22:16:05.079Z,15.70
2023-01-11T22:19:18.384Z,13.80
2023-01-11T22:22:24.499Z,13.50
2023-01-11T22:25:28.612Z,14.60
2023-01-11T22:28:25.961Z,14.80
2023-01-11T22:31:23.291Z,12.70
2023-01-11T22:34:06.517Z,14.40
2023-01-11T22:36:51.434Z,13.20
2023-01-11T22:39:47.076Z,13.50
2023-01-11T22:42:35.822Z,14.60
2023-01-11T22:45:58.019Z,15.20
2023-01-11T22:48:57.955Z,12.50
2023-01-11T22:51:46.744Z,13.40
2023-01-11T22:54:42.481Z,15.20
2023-01-11T22:57:27.633Z,15.00
2023-01-11T23:00:13.216Z,15.60
2023-01-11T23:03:03.952Z,13.90
2023-01-11T23:06:00.635Z,14.40
2023-01-11T23:09:05.273Z,15.30
2023-01-11T23:12:11.635Z,15.30
2023-01-11T23:15:02.856Z,16.70
2023-01-11T23:18:02.400Z,15.30
2023-01-11T23:20:59.458Z,13.70
2023-01-11T23:23:49.893Z,13.40
2023-01-11T23:29:55.496Z,15.50
2023-01-11T23:32:48.527Z,14.60
2023-01-11T23:35:38.813Z,13.60
2023-01-11T23:38:20.945Z,14.70
2023-01-11T23:41:25.210Z,15.50
2023-01-11T23:44:04.768Z,15.30
2023-01-11T23:47:09.718Z,14.90
2023-01-11T23:49:50.337Z,14.00
2023-01-11T23:52:32.916Z,13.80
2023-01-11T23:55:17.657Z,15.10
2023-01-11T23:58:18.310Z,15.10
